Time;durP1;ratioP1;P1;durP2;ratioP2;P2;SDS_P1;SDS_P2;PMS_P1;PMS_P2;Temp;Humidity;BMP_temperature;BMP_pressure;BME280_temperature;BME280_humidity;BME280_pressure;Samples;Min_cycle;Max_cycle;Signal;HPM_P1;HPM_P2
2022/06/04 00:01:46;;;;;;;1.92;1.80;;;;;;;18.39;57.01;100915.19;4954792;28;20022;-72
2022/06/04 00:04:12;;;;;;;2.30;2.10;;;;;;;18.40;57.02;100927.56;4954334;28;20034;-72
2022/06/04 00:06:38;;;;;;;1.88;1.75;;;;;;;18.43;56.85;100932.56;4969470;28;20336;-72
2022/06/04 00:09:06;;;;;;;2.10;2.00;;;;;;;18.37;56.64;100931.44;4954875;28;20122;-73
2022/06/04 00:17:00;;;;;;;2.00;1.90;;;;;;;18.30;56.91;100934.03;4962739;28;19931;-73
2022/06/04 00:19:25;;;;;;;2.20;2.00;;;;;;;18.30;56.92;100934.03;4964586;28;20021;-72
2022/06/04 00:21:51;;;;;;;2.97;2.00;;;;;;;18.25;56.72;100932.94;4971464;28;21117;-71
2022/06/04 00:24:17;;;;;;;2.05;1.85;;;;;;;18.24;56.89;100931.25;4994701;28;20238;-72
2022/06/04 00:26:42;;;;;;;2.05;2.05;;;;;;;18.16;56.91;100926.78;4991572;28;20537;-73
2022/06/04 00:29:09;;;;;;;3.10;2.22;;;;;;;18.05;57.59;100920.06;4994578;28;20963;-73
2022/06/04 00:31:36;;;;;;;2.10;2.00;;;;;;;18.01;57.35;100916.06;4959101;28;20060;-73
2022/06/04 00:34:02;;;;;;;2.78;2.13;;;;;;;18.02;57.45;100920.41;4977333;28;20125;-72
2022/06/04 00:36:28;;;;;;;2.10;2.00;;;;;;;17.93;57.61;100926.84;4978513;28;20504;-73
2022/06/04 00:38:53;;;;;;;2.35;2.10;;;;;;;17.88;58.07;100940.75;4979234;28;20026;-73
2022/06/04 00:41:26;;;;;;;2.30;2.10;;;;;;;17.86;57.99;100937.41;4991587;28;20026;-72
2022/06/04 00:43:56;;;;;;;2.13;2.03;;;;;;;17.81;58.47;100935.28;4994638;28;20020;-73
2022/06/04 00:46:39;;;;;;;2.30;2.10;;;;;;;17.79;58.95;100934.63;4974943;28;20087;-71
2022/06/04 00:49:06;;;;;;;2.35;2.20;;;;;;;17.86;58.91;100940.09;4976756;28;20065;-72
2022/06/04 00:51:31;;;;;;;2.97;1.98;;;;;;;17.77;58.95;100944.69;4941825;28;20029;-72
2022/06/04 00:53:57;;;;;;;2.25;2.15;;;;;;;17.75;58.74;100944.00;4961899;28;20548;-72
2022/06/04 00:56:22;;;;;;;2.28;2.10;;;;;;;17.76;58.94;100948.38;4959523;28;20840;-73
2022/06/04 00:59:12;;;;;;;2.50;2.10;;;;;;;17.60;59.79;100946.66;4978452;28;20950;-73
2022/06/04 01:01:50;;;;;;;4.43;2.08;;;;;;;17.65;59.20;100952.31;4977273;28;21060;-73
2022/06/04 01:04:49;;;;;;;2.20;2.10;;;;;;;17.54;60.11;100949.19;4976028;28;20467;-73
2022/06/04 01:07:30;;;;;;;2.42;2.20;;;;;;;17.60;60.20;100956.53;4967487;28;20022;-74
2022/06/04 01:10:18;;;;;;;2.40;2.30;;;;;;;17.49;60.30;100974.63;4991105;28;20044;-73
2022/06/04 01:13:02;;;;;;;2.30;2.10;;;;;;;17.46;60.46;100985.69;4974305;28;20037;-72
2022/06/04 01:15:45;;;;;;;2.20;2.10;;;;;;;17.46;60.70;100996.41;4968538;28;20023;-73
2022/06/04 01:18:35;;;;;;;2.33;2.25;;;;;;;17.42;61.48;100999.63;4965387;28;20498;-74
2022/06/04 01:21:38;;;;;;;2.47;2.28;;;;;;;17.29;62.38;101005.53;4951449;28;20038;-73
2022/06/04 01:24:24;;;;;;;2.42;2.22;;;;;;;17.35;61.57;101002.16;4968091;28;20030;-73
2022/06/04 01:27:04;;;;;;;3.42;2.50;;;;;;;17.33;61.96;100994.31;4954650;28;20010;-72
2022/06/04 01:29:46;;;;;;;2.50;2.30;;;;;;;17.22;62.57;101000.03;4968697;28;20357;-73
2022/06/04 01:32:40;;;;;;;2.38;2.25;;;;;;;17.15;62.15;100997.22;4969066;28;20030;-72
2022/06/04 01:35:05;;;;;;;2.28;2.17;;;;;;;17.25;62.53;100998.88;4963799;28;20117;-72
2022/06/04 01:37:55;;;;;;;2.47;2.38;;;;;;;17.11;62.82;101006.59;4969295;28;20002;-73
2022/06/04 01:43:08;;;;;;;2.70;2.50;;;;;;;17.02;63.72;100999.63;4953195;28;20483;-73
2022/06/04 01:45:33;;;;;;;3.00;2.70;;;;;;;17.09;64.19;101002.41;4950920;28;20014;-73
2022/06/04 01:47:58;;;;;;;3.08;2.50;;;;;;;16.92;64.50;100998.97;4935037;28;20069;-73
2022/06/04 01:50:30;;;;;;;2.58;2.47;;;;;;;16.90;64.60;101004.50;4926250;28;20332;-72
2022/06/04 01:52:56;;;;;;;3.58;2.67;;;;;;;16.79;65.09;101002.16;4950191;28;20034;-72
2022/06/04 01:55:24;;;;;;;2.80;2.60;;;;;;;16.85;65.11;101003.31;4949808;28;21066;-73
2022/06/04 01:58:06;;;;;;;4.65;2.60;;;;;;;16.79;65.70;101003.03;4949633;28;20068;-72
2022/06/04 02:00:41;;;;;;;4.25;2.67;;;;;;;16.73;65.86;100995.66;4932338;28;20664;-73
2022/06/04 02:03:15;;;;;;;2.78;2.60;;;;;;;16.69;65.63;101005.03;4951992;28;20027;-71
2022/06/04 02:05:44;;;;;;;2.63;2.53;;;;;;;16.53;66.12;101008.56;4935163;28;20114;-73
2022/06/04 02:08:12;;;;;;;3.05;2.80;;;;;;;16.56;66.12;101010.06;4954079;28;20018;-72
2022/06/04 02:10:46;;;;;;;2.97;2.88;;;;;;;16.54;65.32;101012.91;4950472;28;20006;-73
2022/06/04 02:13:12;;;;;;;2.78;2.67;;;;;;;16.53;65.53;101005.91;4954101;28;20042;-72
2022/06/04 02:16:10;;;;;;;2.88;2.75;;;;;;;16.66;65.04;101000.84;4968189;28;20192;-73
2022/06/04 02:18:36;;;;;;;2.90;2.70;;;;;;;16.55;65.44;101003.06;4947413;28;20026;-72
2022/06/04 02:21:01;;;;;;;2.90;2.60;;;;;;;16.60;65.65;100998.06;4970208;28;20411;-73
2022/06/04 02:23:29;;;;;;;3.10;2.80;;;;;;;16.61;65.48;101000.56;4969274;28;20801;-73
2022/06/04 02:25:56;;;;;;;2.92;2.83;;;;;;;16.63;65.26;100995.03;4955427;28;20010;-72
2022/06/04 02:28:21;;;;;;;2.72;2.60;;;;;;;16.64;64.60;100999.38;4952410;28;20041;-73
2022/06/04 02:30:51;;;;;;;2.88;2.78;;;;;;;16.60;64.84;100998.06;4965934;28;20411;-73
2022/06/04 02:33:52;;;;;;;3.08;2.90;;;;;;;16.70;64.15;101001.34;4950778;28;20201;-73
2022/06/04 02:36:33;;;;;;;3.80;2.85;;;;;;;16.52;64.41;100987.38;4969602;28;20007;-73
2022/06/04 02:39:10;;;;;;;3.35;3.05;;;;;;;16.50;64.24;100990.22;4976241;28;20938;-71
2022/06/04 02:41:41;;;;;;;3.13;2.85;;;;;;;16.52;64.27;100987.38;4958997;28;20013;-71
2022/06/04 02:44:09;;;;;;;3.10;2.85;;;;;;;16.52;63.93;100985.53;4974193;28;20110;-72
2022/06/04 02:46:39;;;;;;;3.85;2.90;;;;;;;16.48;63.86;100979.72;4953461;28;20033;-73
2022/06/04 02:49:15;;;;;;;3.08;2.92;;;;;;;16.36;64.43;100981.06;4936624;28;20194;-72
2022/06/04 02:51:43;;;;;;;2.90;2.75;;;;;;;16.43;64.45;100981.22;4937808;28;20113;-72
2022/06/04 02:54:25;;;;;;;4.13;2.60;;;;;;;16.33;64.14;100973.38;4936734;28;20033;-72
2022/06/04 02:56:50;;;;;;;2.65;2.50;;;;;;;16.32;63.96;100974.38;4922098;28;20029;-73
2022/06/04 02:59:17;;;;;;;3.22;2.92;;;;;;;16.46;63.88;100963.00;4937249;28;20010;-71
2022/06/04 03:01:43;;;;;;;2.90;2.70;;;;;;;16.26;64.47;100959.03;4937673;28;20231;-73
2022/06/04 03:04:09;;;;;;;2.80;2.70;;;;;;;16.22;64.34;100966.53;4921625;28;20171;-72
2022/06/04 03:06:34;;;;;;;2.92;2.80;;;;;;;16.20;64.01;100965.03;4945160;28;20462;-73
2022/06/04 03:09:05;;;;;;;2.63;2.53;;;;;;;16.25;64.63;100960.03;4974986;28;20026;-71
2022/06/04 03:11:32;;;;;;;3.17;2.97;;;;;;;16.17;64.90;100952.03;4957268;28;20081;-72
2022/06/04 03:13:58;;;;;;;3.33;2.90;;;;;;;16.16;64.65;100966.38;4957416;28;20469;-73
2022/06/04 03:16:23;;;;;;;3.08;2.80;;;;;;;16.08;64.36;100960.03;4972541;28;21009;-73
2022/06/04 03:18:48;;;;;;;2.75;2.65;;;;;;;16.12;64.44;100950.69;4957695;28;20022;-73
2022/06/04 03:21:14;;;;;;;3.05;2.70;;;;;;;16.08;65.09;100959.22;4972358;28;20025;-73
2022/06/04 03:23:39;;;;;;;4.07;2.53;;;;;;;16.01;65.19;100956.38;4974347;28;20020;-72
2022/06/04 03:26:05;;;;;;;2.92;2.72;;;;;;;16.01;64.38;100953.72;4974063;28;20866;-73
2022/06/04 03:28:30;;;;;;;2.90;2.78;;;;;;;15.92;64.36;100949.38;4974649;28;20474;-74
2022/06/04 03:30:56;;;;;;;2.80;2.60;;;;;;;15.90;64.31;100940.69;4956708;28;20013;-74
2022/06/04 03:33:21;;;;;;;2.85;2.75;;;;;;;15.87;64.38;100946.38;4958086;28;20833;-74
2022/06/04 03:35:47;;;;;;;3.15;2.95;;;;;;;15.87;64.21;100947.19;4994521;28;20021;-73
2022/06/04 03:38:12;;;;;;;2.97;2.75;;;;;;;15.87;64.37;100949.88;4958482;28;20377;-73
2022/06/04 03:40:38;;;;;;;2.60;2.45;;;;;;;15.92;64.66;100957.38;4970608;28;20062;-73
2022/06/04 03:43:03;;;;;;;2.83;2.63;;;;;;;15.90;64.46;100962.06;4956417;28;21289;-74
2022/06/04 03:45:29;;;;;;;2.97;2.78;;;;;;;15.95;64.12;100959.72;4957116;28;20070;-73
2022/06/04 03:47:55;;;;;;;3.45;2.63;;;;;;;15.97;64.08;100968.38;4974954;28;20892;-74
2022/06/04 03:50:20;;;;;;;2.75;2.65;;;;;;;15.96;63.54;100977.38;4959168;28;20032;-72
2022/06/04 03:52:46;;;;;;;2.78;2.67;;;;;;;16.03;63.54;100974.91;4965115;28;20148;-72
2022/06/04 03:55:12;;;;;;;3.78;2.60;;;;;;;15.99;63.89;100982.41;4976857;28;20032;-73
2022/06/04 03:57:38;;;;;;;2.60;2.40;;;;;;;15.97;64.20;100979.06;4974437;28;20780;-73
2022/06/04 04:00:11;;;;;;;3.80;2.88;;;;;;;15.97;64.37;100995.91;4995748;28;20022;-72
2022/06/04 04:02:36;;;;;;;5.20;2.60;;;;;;;15.91;64.72;100991.25;4997291;28;20021;-72
2022/06/04 04:05:03;;;;;;;2.85;2.75;;;;;;;15.95;64.27;100989.09;4995524;28;20530;-74
2022/06/04 04:07:29;;;;;;;2.58;2.47;;;;;;;15.95;63.68;100991.75;4995598;28;20170;-74
2022/06/04 04:09:54;;;;;;;2.90;2.72;;;;;;;16.02;64.01;100990.09;4997744;28;20210;-73
2022/06/04 04:12:20;;;;;;;2.85;2.58;;;;;;;16.01;63.12;100990.25;4998484;28;20338;-72
2022/06/04 04:14:45;;;;;;;2.78;2.58;;;;;;;15.99;64.39;100993.09;4991617;28;20022;-72
2022/06/04 04:17:11;;;;;;;2.88;2.78;;;;;;;16.01;64.28;100996.41;4958862;28;20035;-73
2022/06/04 04:19:37;;;;;;;2.53;2.42;;;;;;;16.03;63.58;100996.25;4974449;28;20095;-73
2022/06/04 04:22:02;;;;;;;2.42;2.33;;;;;;;16.02;64.17;100986.56;4959866;28;20007;-73
2022/06/04 04:24:28;;;;;;;3.00;2.80;;;;;;;16.03;64.18;100999.75;4963991;28;20041;-72
2022/06/04 04:26:53;;;;;;;2.97;2.65;;;;;;;16.05;64.28;101007.63;5010353;28;20524;-73
2022/06/04 04:29:19;;;;;;;2.80;2.45;;;;;;;16.09;64.85;100999.09;5007147;28;20030;-73
2022/06/04 04:31:44;;;;;;;2.60;2.50;;;;;;;16.16;64.43;101023.31;4990026;28;20948;-73
2022/06/04 04:34:10;;;;;;;2.75;2.38;;;;;;;16.13;63.98;101016.44;4983612;28;20049;-73
2022/06/04 04:36:35;;;;;;;2.75;2.58;;;;;;;16.22;64.07;101016.47;4991359;28;20623;-72
2022/06/04 04:39:00;;;;;;;4.80;2.75;;;;;;;16.18;63.96;101015.13;4971056;28;20034;-73
2022/06/04 04:41:26;;;;;;;2.50;2.40;;;;;;;16.14;63.93;101018.13;4968371;28;20011;-72
2022/06/04 04:43:51;;;;;;;2.78;2.58;;;;;;;16.11;63.24;101015.75;4935142;28;20448;-73
2022/06/04 04:46:17;;;;;;;2.65;2.45;;;;;;;16.12;63.11;101020.13;4970201;28;20018;-73
2022/06/04 04:48:44;;;;;;;2.20;2.10;;;;;;;16.18;63.26;101023.94;4969325;28;20702;-74
2022/06/04 04:51:20;;;;;;;2.28;2.17;;;;;;;16.20;63.17;101026.44;4934364;28;20028;-73
2022/06/04 04:53:46;;;;;;;2.85;2.55;;;;;;;16.20;63.11;101027.31;4950856;28;20052;-74
2022/06/04 04:56:16;;;;;;;2.50;2.30;;;;;;;16.24;63.37;101019.78;4934693;28;20010;-73
2022/06/04 04:58:41;;;;;;;2.47;2.38;;;;;;;16.30;62.97;101024.44;4936147;28;20045;-73
2022/06/04 05:01:20;;;;;;;2.60;2.50;;;;;;;16.34;63.20;101032.97;4970037;28;20085;-74
2022/06/04 05:03:45;;;;;;;3.38;2.67;;;;;;;16.36;62.62;101037.13;4953404;28;20049;-74
2022/06/04 05:06:12;;;;;;;2.50;2.40;;;;;;;16.36;62.62;101036.28;4966974;28;20805;-74
2022/06/04 05:08:37;;;;;;;3.08;2.45;;;;;;;16.46;62.27;101043.13;4951295;28;20314;-75
2022/06/04 05:11:07;;;;;;;2.50;2.40;;;;;;;16.51;62.50;101047.16;4966949;28;20490;-75
2022/06/04 05:13:33;;;;;;;2.67;2.42;;;;;;;16.60;61.81;101059.50;4952360;28;20638;-74
2022/06/04 05:15:58;;;;;;;2.42;2.33;;;;;;;16.74;61.31;101058.81;4957681;28;20808;-75
2022/06/04 05:18:24;;;;;;;3.10;2.45;;;;;;;16.86;61.39;101071.81;4954240;28;20033;-75
2022/06/04 05:20:49;;;;;;;2.42;2.30;;;;;;;16.85;61.19;101072.81;4921024;28;20022;-76
2022/06/04 05:23:14;;;;;;;2.40;2.30;;;;;;;16.90;60.59;101082.03;4952226;28;20280;-76
2022/06/04 05:25:40;;;;;;;2.42;2.30;;;;;;;16.98;61.20;101073.16;4951868;28;20010;-74
2022/06/04 05:28:06;;;;;;;3.63;2.67;;;;;;;16.98;61.37;101079.34;4917157;28;20199;-75
2022/06/04 05:30:31;;;;;;;2.38;2.28;;;;;;;17.03;60.75;101078.81;4932998;28;20413;-75
2022/06/04 05:32:56;;;;;;;2.20;2.10;;;;;;;17.08;61.31;101073.78;4934115;28;20030;-75
2022/06/04 05:35:22;;;;;;;2.28;2.17;;;;;;;17.10;60.97;101079.78;4937289;28;20019;-75
2022/06/04 05:37:47;;;;;;;5.18;1.98;;;;;;;17.18;60.80;101078.94;4935687;28;20940;-74
2022/06/04 05:40:13;;;;;;;2.65;2.45;;;;;;;17.30;60.71;101080.25;4935511;28;20042;-74
2022/06/04 05:42:38;;;;;;;2.50;2.40;;;;;;;17.37;60.69;101076.88;4934878;28;20646;-74
2022/06/04 05:45:04;;;;;;;2.40;2.20;;;;;;;17.45;59.71;101079.53;4949558;28;20080;-74
2022/06/04 05:47:29;;;;;;;2.45;2.35;;;;;;;17.47;60.09;101086.38;4935020;28;20021;-74
2022/06/04 05:49:55;;;;;;;2.58;2.47;;;;;;;17.57;60.13;101093.34;4949450;28;20022;-75
2022/06/04 05:52:21;;;;;;;2.67;2.47;;;;;;;17.62;58.92;101088.31;4968370;28;20037;-75
2022/06/04 05:54:46;;;;;;;2.35;2.22;;;;;;;17.61;58.90;101083.94;4939458;28;20771;-75
2022/06/04 05:57:12;;;;;;;2.40;2.30;;;;;;;17.67;60.17;101093.97;4952996;28;20060;-75
2022/06/04 05:59:37;;;;;;;2.30;2.20;;;;;;;17.79;61.35;101092.56;4948913;28;20017;-75
2022/06/04 06:02:03;;;;;;;3.38;2.63;;;;;;;17.78;59.70;101093.59;5003233;28;20413;-75
2022/06/04 06:04:28;;;;;;;4.53;2.30;;;;;;;17.78;59.70;101101.63;4957927;28;20098;-74
2022/06/04 06:06:54;;;;;;;2.67;2.45;;;;;;;17.64;58.75;101097.84;4974379;28;20898;-74
2022/06/04 06:09:21;;;;;;;2.72;2.53;;;;;;;17.73;59.34;101100.47;4975059;28;20142;-75
2022/06/04 06:11:48;;;;;;;2.80;2.40;;;;;;;17.80;60.65;101106.78;4972039;28;20144;-74
2022/06/04 06:14:14;;;;;;;2.90;2.70;;;;;;;17.71;60.44;101095.28;4988851;28;20083;-75
2022/06/04 06:16:41;;;;;;;2.70;2.60;;;;;;;17.84;60.42;101108.09;4962938;28;20501;-75
2022/06/04 06:19:07;;;;;;;2.45;2.30;;;;;;;17.95;60.03;101123.81;4953671;28;20025;-75
2022/06/04 06:21:32;;;;;;;2.67;2.42;;;;;;;18.06;59.41;101114.50;4953451;28;20013;-74
2022/06/04 06:23:58;;;;;;;2.63;2.42;;;;;;;18.10;60.40;101115.00;4971655;28;20013;-74
2022/06/04 06:26:29;;;;;;;2.55;2.35;;;;;;;18.17;60.21;101116.78;4967739;28;20918;-76
2022/06/04 06:28:55;;;;;;;2.55;2.30;;;;;;;18.23;60.16;101119.78;4973745;28;20117;-75
2022/06/04 06:31:23;;;;;;;2.72;2.40;;;;;;;18.34;59.82;101117.50;4969028;28;20022;-75
2022/06/04 06:33:49;;;;;;;2.72;2.50;;;;;;;18.34;59.11;101122.03;4972335;28;20084;-75
2022/06/04 06:36:16;;;;;;;3.25;2.50;;;;;;;18.50;59.08;101126.44;4972057;28;20185;-74
2022/06/04 06:38:41;;;;;;;3.40;2.33;;;;;;;18.54;58.61;101130.41;4973772;27;20117;-75
2022/06/04 06:41:07;;;;;;;4.25;2.30;;;;;;;18.68;58.78;101128.78;4975042;28;20014;-74
2022/06/04 06:43:35;;;;;;;2.67;2.47;;;;;;;18.77;59.04;101137.59;4993835;28;21861;-75
2022/06/04 06:46:10;;;;;;;2.58;2.38;;;;;;;18.75;58.18;101140.47;4978675;28;20022;-74
2022/06/04 06:48:37;;;;;;;2.40;2.30;;;;;;;18.79;58.18;101136.41;4993169;28;20033;-75
2022/06/04 06:51:11;;;;;;;2.33;2.25;;;;;;;18.90;58.07;101140.53;4961041;28;20082;-75
2022/06/04 06:53:36;;;;;;;;;;;;;;;18.96;57.87;101150.53;4964978;28;20142;-75
2022/06/04 06:56:13;;;;;;;2.20;2.10;;;;;;;19.03;58.01;101145.28;4963173;28;20299;-75
2022/06/04 06:58:38;;;;;;;3.90;2.30;;;;;;;19.15;57.97;101146.50;4959965;28;20026;-75
2022/06/04 07:01:04;;;;;;;2.40;2.30;;;;;;;19.25;58.01;101140.84;4959905;28;20010;-74
2022/06/04 07:03:30;;;;;;;3.17;2.47;;;;;;;19.25;57.17;101135.50;4961034;28;20036;-75
2022/06/04 07:05:56;;;;;;;2.55;2.40;;;;;;;19.36;57.32;101132.34;4960102;28;20049;-74
2022/06/04 07:08:22;;;;;;;2.58;2.45;;;;;;;19.49;57.17;101137.06;4942570;28;20763;-74
2022/06/04 07:10:48;;;;;;;2.67;2.47;;;;;;;19.55;56.90;101135.47;4958551;28;20650;-75
2022/06/04 07:13:13;;;;;;;3.00;2.55;;;;;;;19.61;56.30;101133.91;4952309;28;20937;-74
2022/06/04 07:15:38;;;;;;;2.55;2.42;;;;;;;19.84;56.57;101140.00;4989679;28;20021;-74
2022/06/04 07:18:04;;;;;;;4.38;2.17;;;;;;;19.88;56.93;101130.56;4973136;28;20327;-74
2022/06/04 07:20:29;;;;;;;3.03;2.55;;;;;;;20.03;56.67;101133.19;4936352;28;20025;-75
2022/06/04 07:22:55;;;;;;;2.70;2.50;;;;;;;19.97;55.58;101130.44;4969080;28;20814;-75
2022/06/04 07:25:21;;;;;;;6.25;2.58;;;;;;;19.92;55.93;101135.53;4968238;28;20040;-73
2022/06/04 07:27:46;;;;;;;71.35;6.78;;;;;;;20.07;54.98;101137.16;4968646;28;20039;-75
2022/06/04 07:30:12;;;;;;;11.40;2.72;;;;;;;20.20;54.38;101138.34;4987972;28;20026;-73
2022/06/04 07:32:37;;;;;;;4.75;2.45;;;;;;;20.29;55.47;101142.56;4968251;28;20518;-73
2022/06/04 07:35:03;;;;;;;2.40;2.30;;;;;;;20.41;54.77;101142.88;4969348;28;20095;-76
2022/06/04 07:37:28;;;;;;;4.00;2.60;;;;;;;20.47;54.39;101143.97;4986402;28;20002;-78
2022/06/04 07:39:54;;;;;;;2.40;2.20;;;;;;;20.54;53.97;101144.84;4969089;28;20034;-74
2022/06/04 07:42:19;;;;;;;3.88;2.25;;;;;;;20.44;54.28;101150.56;4988224;28;20016;-74
2022/06/04 07:44:44;;;;;;;2.55;2.03;;;;;;;20.45;53.64;101157.59;4952874;28;20021;-74
2022/06/04 07:47:12;;;;;;;2.13;2.03;;;;;;;20.64;54.97;101161.50;4970274;28;20048;-75
2022/06/04 07:49:37;;;;;;;2.65;2.45;;;;;;;20.56;54.22;101164.34;4951984;28;20021;-75
2022/06/04 07:52:03;;;;;;;2.40;2.30;;;;;;;20.77;53.38;101166.19;4948394;28;20022;-74
2022/06/04 07:54:29;;;;;;;3.72;2.33;;;;;;;20.72;53.73;101163.25;4952824;28;20032;-74
2022/06/04 07:56:54;;;;;;;2.25;2.15;;;;;;;20.88;53.77;101163.00;4949080;28;20487;-75
2022/06/04 07:59:20;;;;;;;5.47;2.42;;;;;;;20.86;53.99;101161.50;4988717;28;20021;-74
2022/06/04 08:01:46;;;;;;;10.00;3.03;;;;;;;20.89;55.57;101158.44;4982186;28;20030;-75
2022/06/04 08:04:11;;;;;;;2.65;2.45;;;;;;;20.99;54.38;101171.53;4972611;28;20010;-74
2022/06/04 08:06:37;;;;;;;2.70;2.60;;;;;;;21.25;53.21;101176.25;4973343;28;21002;-76
2022/06/04 08:09:02;;;;;;;3.20;2.63;;;;;;;21.14;52.48;101166.03;4978146;28;20134;-76
2022/06/04 08:11:31;;;;;;;2.83;2.55;;;;;;;21.09;53.19;101170.19;4935666;28;20022;-74
2022/06/04 08:13:58;;;;;;;2.40;2.30;;;;;;;21.18;53.15;101160.09;4975998;28;20030;-75
2022/06/04 08:16:23;;;;;;;4.57;2.35;;;;;;;21.25;52.89;101155.59;4966116;28;20092;-75
2022/06/04 08:18:49;;;;;;;2.63;2.42;;;;;;;21.38;52.31;101157.53;4978215;28;20308;-74
2022/06/04 08:21:15;;;;;;;2.15;2.08;;;;;;;21.46;52.40;101151.13;4979066;28;20010;-72
2022/06/04 08:23:42;;;;;;;2.55;2.40;;;;;;;21.55;53.55;101149.97;4974838;28;20882;-76
2022/06/04 08:26:07;;;;;;;2.33;2.22;;;;;;;21.61;51.90;101146.47;4975303;28;20529;-76
2022/06/04 08:28:33;;;;;;;2.28;2.08;;;;;;;21.68;53.24;101141.13;4948064;28;20098;-73
2022/06/04 08:31:04;;;;;;;2.20;2.10;;;;;;;21.63;53.30;101140.88;4971738;28;20055;-74
2022/06/04 08:33:30;;;;;;;2.30;2.20;;;;;;;21.90;53.09;101132.91;4956496;28;20190;-73
2022/06/04 08:35:55;;;;;;;3.58;2.38;;;;;;;21.86;53.09;101143.28;4954041;28;20651;-74
2022/06/04 08:38:21;;;;;;;2.65;2.55;;;;;;;21.92;52.73;101134.38;4962313;28;20030;-74
2022/06/04 08:40:54;;;;;;;2.50;2.40;;;;;;;21.82;52.33;101131.22;4961406;28;20056;-75
2022/06/04 08:43:24;;;;;;;2.53;2.08;;;;;;;21.99;52.40;101136.25;4969610;28;20026;-72
2022/06/04 08:45:49;;;;;;;2.35;2.15;;;;;;;22.15;52.96;101140.44;4958933;28;20406;-72
2022/06/04 08:48:19;;;;;;;2.40;2.10;;;;;;;22.33;51.76;101131.78;4939757;28;20022;-74
2022/06/04 08:50:44;;;;;;;2.72;2.38;;;;;;;22.63;52.21;101132.22;4921468;28;20019;-73
2022/06/04 08:53:16;;;;;;;2.53;2.33;;;;;;;22.69;50.49;101133.25;4938551;28;20038;-72
2022/06/04 08:58:57;;;;;;;3.53;2.40;;;;;;;22.92;51.53;101122.06;4943991;28;20018;-77
2022/06/04 09:01:37;;;;;;;2.90;2.70;;;;;;;22.86;51.39;101120.19;4966321;28;20416;-72
2022/06/04 09:04:21;;;;;;;2.85;2.47;;;;;;;22.73;52.08;101131.81;4950996;28;20113;-75
2022/06/04 09:06:56;;;;;;;;;;;;;;;22.92;52.71;101124.75;4966800;28;20022;-72
2022/06/04 09:09:33;;;;;;;12.55;3.47;;;;;;;23.04;52.40;101127.63;4965459;28;19908;-78
2022/06/04 09:12:03;;;;;;;4.20;2.55;;;;;;;23.19;51.02;101122.03;4952575;28;20059;-78
2022/06/04 09:14:44;;;;;;;2.70;2.60;;;;;;;23.56;51.96;101131.25;4978802;28;20042;-78
2022/06/04 09:17:15;;;;;;;2.58;2.45;;;;;;;23.64;52.02;101133.72;4952464;28;20018;-78
2022/06/04 09:19:41;;;;;;;2.72;2.53;;;;;;;24.04;52.67;101148.13;4952487;28;20029;-76
2022/06/04 09:22:34;;;;;;;2.53;2.42;;;;;;;24.40;49.46;101152.06;4936589;28;20885;-73
2022/06/04 09:24:59;;;;;;;2.58;2.47;;;;;;;24.89;48.16;101160.44;4948358;28;20771;-75
2022/06/04 09:27:36;;;;;;;2.72;2.53;;;;;;;24.75;47.61;101165.13;4964306;28;20022;-76
2022/06/04 09:30:24;;;;;;;2.03;1.92;;;;;;;24.69;47.35;101173.09;4965705;28;20258;-76
2022/06/04 09:33:08;;;;;;;2.40;2.20;;;;;;;24.74;47.65;101172.44;4965956;28;20144;-77
2022/06/04 09:35:37;;;;;;;2.40;2.30;;;;;;;24.72;48.66;101187.22;4968237;28;20022;-74
2022/06/04 09:38:02;;;;;;;3.10;2.60;;;;;;;24.50;48.36;101179.47;4949574;28;21032;-75
2022/06/04 09:40:30;;;;;;;2.80;2.60;;;;;;;24.18;49.34;101180.28;4964779;28;20057;-76
2022/06/04 09:43:11;;;;;;;2.65;2.55;;;;;;;23.95;48.89;101172.69;4946966;28;20015;-71
2022/06/04 09:45:37;;;;;;;8.57;2.70;;;;;;;24.21;50.56;101167.38;4957363;28;20018;-76
2022/06/04 09:48:20;;;;;;;2.53;2.33;;;;;;;24.43;49.78;101182.19;4954072;28;20021;-76
2022/06/04 09:50:57;;;;;;;2.78;2.58;;;;;;;24.84;49.84;101180.06;4934517;28;20113;-75
2022/06/04 09:53:23;;;;;;;2.70;2.50;;;;;;;24.63;49.72;101182.09;4959414;28;20213;-75
2022/06/04 09:55:50;;;;;;;4.70;2.75;;;;;;;24.60;49.10;101184.38;4951059;28;20133;-75
2022/06/04 09:58:20;;;;;;;2.45;2.30;;;;;;;24.65;49.97;101182.72;4967554;28;20030;-74
2022/06/04 10:00:54;;;;;;;2.55;2.42;;;;;;;24.56;48.92;101181.28;4966706;28;20023;-75
2022/06/04 10:03:20;;;;;;;2.65;2.50;;;;;;;24.34;50.39;101181.63;4969584;28;20153;-75
2022/06/04 10:05:50;;;;;;;2.25;2.15;;;;;;;24.45;50.24;101166.59;4973921;28;20215;-74
2022/06/04 10:08:22;;;;;;;2.33;2.20;;;;;;;24.42;49.24;101171.59;4947848;28;20046;-74
2022/06/04 10:10:47;;;;;;;3.28;2.67;;;;;;;24.49;48.72;101173.22;4953804;28;20370;-72
2022/06/04 10:16:23;;;;;;;16.80;6.40;;;;;;;24.60;49.04;101174.41;4960108;28;21017;-73
2022/06/04 10:19:13;;;;;;;21.85;8.38;;;;;;;24.75;49.57;101175.94;4966776;28;20011;-74
2022/06/04 10:21:41;;;;;;;24.33;8.82;;;;;;;24.54;49.83;101172.56;4978928;28;20029;-73
2022/06/04 10:24:20;;;;;;;2.90;2.72;;;;;;;24.58;50.32;101170.22;4987372;28;20034;-72
2022/06/04 10:27:22;;;;;;;8.80;3.35;;;;;;;24.73;49.12;101186.19;4982330;28;20369;-73
2022/06/04 10:29:50;;;;;;;9.95;3.40;;;;;;;24.98;47.74;101181.59;4968069;28;20014;-72
2022/06/04 10:32:15;;;;;;;2.50;2.40;;;;;;;25.31;48.10;101185.03;4971549;28;20006;-74
2022/06/04 10:35:06;;;;;;;3.03;2.80;;;;;;;25.79;46.33;101170.75;4970354;28;20030;-76
2022/06/04 10:38:01;;;;;;;2.80;2.60;;;;;;;26.27;46.37;101177.25;4953286;28;20026;-76
2022/06/04 10:40:32;;;;;;;2.13;2.03;;;;;;;26.44;47.88;101176.56;4982024;28;20064;-76
2022/06/04 10:43:05;;;;;;;3.47;2.50;;;;;;;27.08;43.96;101184.94;4970839;28;20927;-76
2022/06/04 10:45:51;;;;;;;2.63;2.50;;;;;;;27.63;42.83;101178.28;4954738;28;20017;-76
2022/06/04 10:48:54;;;;;;;2.53;2.33;;;;;;;28.10;42.56;101172.72;4974291;28;20014;-75
2022/06/04 10:51:38;;;;;;;2.65;2.50;;;;;;;28.43;43.36;101182.00;5001357;28;20016;-76
2022/06/04 10:54:18;;;;;;;2.63;2.53;;;;;;;28.49;41.44;101174.72;5009301;28;20029;-76
2022/06/04 10:56:53;;;;;;;2.40;2.30;;;;;;;28.84;42.04;101184.59;5010680;28;20013;-75
2022/06/04 10:59:25;;;;;;;2.40;2.30;;;;;;;28.29;42.69;101175.22;5010064;28;20157;-76
2022/06/04 11:02:08;;;;;;;2.40;2.28;;;;;;;28.28;43.42;101168.13;4946391;28;20016;-76
2022/06/04 11:04:42;;;;;;;2.40;2.20;;;;;;;28.00;43.70;101167.06;4970515;28;20358;-76
2022/06/04 11:07:26;;;;;;;;;;;;;;;28.71;44.19;101166.69;4956250;28;20014;-76
2022/06/04 11:09:51;;;;;;;2.70;2.60;;;;;;;28.08;42.52;101155.78;4992512;28;19900;-76
2022/06/04 11:12:35;;;;;;;2.60;2.50;;;;;;;28.36;42.97;101156.81;4942072;28;20014;-76
2022/06/04 11:15:11;;;;;;;3.22;2.53;;;;;;;29.05;41.78;101155.75;4960771;28;20044;-77
2022/06/04 11:17:44;;;;;;;3.60;2.38;;;;;;;29.11;40.08;101153.94;4958249;28;20269;-77
2022/06/04 11:20:15;;;;;;;8.07;2.38;;;;;;;29.56;41.26;101160.28;4954418;28;20128;-77
2022/06/04 11:23:02;;;;;;;2.28;2.20;;;;;;;29.75;40.11;101158.03;4970669;28;20010;-76
2022/06/04 11:25:30;;;;;;;2.50;2.40;;;;;;;30.17;38.94;101153.84;4973123;28;20024;-75
2022/06/04 11:28:07;;;;;;;2.67;2.42;;;;;;;30.62;39.09;101150.69;4952732;28;20252;-77
2022/06/04 11:31:07;;;;;;;2.67;2.50;;;;;;;30.89;37.75;101148.97;4952943;28;20018;-76
2022/06/04 11:33:48;;;;;;;2.70;2.50;;;;;;;30.94;38.56;101157.19;4975170;28;20022;-77
2022/06/04 11:36:24;;;;;;;3.28;2.97;;;;;;;30.67;37.80;101152.66;4988351;28;20148;-76
2022/06/04 11:39:02;;;;;;;2.83;2.67;;;;;;;30.71;36.31;101158.41;4951620;28;20652;-77
2022/06/04 11:41:36;;;;;;;2.90;2.70;;;;;;;30.77;36.87;101158.19;4967933;28;20492;-76
2022/06/04 11:44:29;;;;;;;2.80;2.60;;;;;;;31.13;37.28;101163.09;4956528;28;20033;-76
2022/06/04 11:47:17;;;;;;;2.90;2.70;;;;;;;31.09;36.77;101157.31;4976112;28;20022;-75
2022/06/04 11:49:49;;;;;;;2.45;2.35;;;;;;;31.19;36.73;101153.00;4975462;28;20020;-77
2022/06/04 11:52:20;;;;;;;3.67;2.67;;;;;;;30.81;38.46;101156.59;4997304;28;20010;-75
2022/06/04 11:54:51;;;;;;;2.60;2.50;;;;;;;30.71;39.85;101159.22;4980395;28;20025;-77
2022/06/04 11:57:41;;;;;;;2.47;2.30;;;;;;;31.83;38.58;101169.16;4994403;28;20057;-75